Time;durP1;ratioP1;P1;durP2;ratioP2;P2;SDS_P1;SDS_P2;PMS_P1;PMS_P2;Temp;Humidity;BMP_temperature;BMP_pressure;BME280_temperature;BME280_humidity;BME280_pressure;Samples;Min_cycle;Max_cycle;Signal;HPM_P1;HPM_P2
2021/01/18 00:00:12;;;;;;;130.85;71.40;;;;;;;-14.95;57.12;100795.56;5025348;28;20046;-72
2021/01/18 00:02:39;;;;;;;131.50;76.13;;;;;;;-15.02;56.96;100791.94;5025192;28;20473;-72
2021/01/18 00:05:06;;;;;;;151.23;76.13;;;;;;;-15.05;56.95;100794.38;5024455;28;20056;-72
2021/01/18 00:07:46;;;;;;;152.73;72.97;;;;;;;-15.07;57.05;100795.09;5024686;28;20053;-71
2021/01/18 00:10:14;;;;;;;144.55;86.45;;;;;;;-15.10;57.15;100782.31;5024922;28;20061;-72
2021/01/18 00:12:43;;;;;;;136.20;86.85;;;;;;;-15.12;56.89;100783.91;5026893;28;20551;-74
2021/01/18 00:15:11;;;;;;;130.60;69.70;;;;;;;-15.15;56.97;100778.72;5025487;28;20046;-72
2021/01/18 00:17:37;;;;;;;100.43;52.05;;;;;;;-15.19;56.84;100782.81;5025293;28;20045;-70
2021/01/18 00:20:05;;;;;;;102.93;50.03;;;;;;;-15.23;57.04;100789.44;5024625;28;20052;-69
2021/01/18 00:22:31;;;;;;;88.20;52.13;;;;;;;-15.26;57.00;100779.16;5025852;28;20068;-72
2021/01/18 00:24:58;;;;;;;104.50;56.13;;;;;;;-15.27;57.20;100781.63;5025570;28;20102;-72
2021/01/18 00:27:25;;;;;;;81.88;44.83;;;;;;;-15.28;57.11;100783.31;5024983;28;20081;-72
2021/01/18 00:29:51;;;;;;;57.35;43.00;;;;;;;-15.29;56.87;100779.03;5025250;28;20053;-72
2021/01/18 00:32:22;;;;;;;86.78;54.00;;;;;;;-15.30;57.32;100772.25;5025625;28;20571;-72
2021/01/18 00:34:48;;;;;;;74.68;36.35;;;;;;;-15.28;56.96;100784.97;5024976;28;20099;-72
2021/01/18 00:37:15;;;;;;;72.03;36.58;;;;;;;-15.31;57.10;100775.56;5024981;28;20045;-70
2021/01/18 00:39:43;;;;;;;107.65;41.75;;;;;;;-15.34;57.16;100782.19;5024524;28;20041;-71
2021/01/18 00:42:17;;;;;;;68.47;40.38;;;;;;;-15.37;56.84;100785.47;5024982;28;20041;-70
2021/01/18 00:44:43;;;;;;;103.00;55.85;;;;;;;-15.38;57.09;100786.25;5025570;28;20110;-70
2021/01/18 00:47:09;;;;;;;72.57;42.38;;;;;;;-15.37;56.84;100785.47;5024620;28;20138;-72
2021/01/18 00:49:36;;;;;;;124.80;65.82;;;;;;;-15.38;57.18;100786.25;5025572;28;20072;-71
2021/01/18 00:52:02;;;;;;;69.47;46.25;;;;;;;-15.34;57.19;100787.25;5025735;28;20065;-72
2021/01/18 00:54:29;;;;;;;84.25;42.90;;;;;;;-15.33;56.86;100783.94;5022468;28;20056;-70
2021/01/18 00:56:55;;;;;;;176.45;81.25;;;;;;;-15.32;56.79;100783.09;5024331;28;20053;-72
2021/01/18 00:59:22;;;;;;;128.43;67.65;;;;;;;-15.31;56.85;100789.91;5024732;28;20050;-70
2021/01/18 01:01:49;;;;;;;112.22;68.28;;;;;;;-15.29;56.94;100784.09;5023988;28;20049;-70
2021/01/18 01:04:15;;;;;;;138.48;73.88;;;;;;;-15.34;56.60;100783.03;5024403;28;20100;-72
2021/01/18 01:06:41;;;;;;;152.98;76.43;;;;;;;-15.39;56.96;100784.56;5024653;28;20409;-71
2021/01/18 01:09:08;;;;;;;189.55;89.60;;;;;;;-15.42;56.99;100781.88;5023487;28;20053;-70
2021/01/18 01:11:34;;;;;;;138.05;61.90;;;;;;;-15.45;56.70;100781.75;5025540;28;20042;-71
2021/01/18 01:14:01;;;;;;;122.80;63.03;;;;;;;-15.46;56.52;100777.50;5026344;28;20188;-72
2021/01/18 01:16:28;;;;;;;139.98;73.35;;;;;;;-15.45;56.71;100771.63;5023892;28;20049;-71
2021/01/18 01:18:54;;;;;;;122.38;72.35;;;;;;;-15.40;56.71;100771.00;5024899;28;20063;-72
2021/01/18 01:21:21;;;;;;;143.38;81.93;;;;;;;-15.28;56.54;100775.72;5025594;28;20124;-71
2021/01/18 01:23:47;;;;;;;127.43;71.95;;;;;;;-15.12;56.51;100771.22;5023843;28;20053;-70
2021/01/18 01:26:13;;;;;;;125.45;71.07;;;;;;;-14.96;56.22;100776.13;5024189;28;20759;-70
2021/01/18 01:28:40;;;;;;;91.22;56.92;;;;;;;-14.84;55.87;100768.13;5024006;28;20045;-71
2021/01/18 01:31:06;;;;;;;95.95;60.72;;;;;;;-14.77;55.98;100764.16;5022975;28;20046;-70
2021/01/18 01:33:33;;;;;;;102.53;75.07;;;;;;;-14.86;55.95;100770.59;5024993;28;20107;-73
2021/01/18 01:36:01;;;;;;;120.25;70.97;;;;;;;-14.63;55.45;100771.47;5025118;28;20049;-72
2021/01/18 01:38:27;;;;;;;164.63;72.53;;;;;;;-14.61;55.28;100771.53;5023518;28;20077;-73
2021/01/18 01:40:53;;;;;;;184.38;84.60;;;;;;;-14.64;55.52;100773.94;5025019;28;20041;-71
2021/01/18 01:43:20;;;;;;;128.65;69.00;;;;;;;-14.67;55.24;100767.09;5025356;28;20049;-71
2021/01/18 01:45:47;;;;;;;148.00;72.95;;;;;;;-14.69;55.38;100771.25;5021947;28;20585;-71
2021/01/18 01:48:14;;;;;;;112.82;48.65;;;;;;;-14.73;55.19;100765.97;5024071;28;20524;-69
2021/01/18 01:50:41;;;;;;;80.32;44.75;;;;;;;-14.79;55.45;100763.22;5024837;28;20744;-71
2021/01/18 01:53:13;;;;;;;100.07;56.17;;;;;;;-14.85;55.43;100767.25;5022801;28;20056;-72
2021/01/18 01:55:40;;;;;;;106.88;59.72;;;;;;;-14.87;55.35;100758.72;5023888;28;20501;-73
2021/01/18 01:58:08;;;;;;;98.38;53.63;;;;;;;-14.87;55.49;100757.84;5024545;28;21153;-71
2021/01/18 02:00:38;;;;;;;65.45;35.65;;;;;;;-14.93;55.27;100753.41;5023578;28;20049;-70
2021/01/18 02:03:09;;;;;;;2.22;1.13;;;;;;;-15.00;55.29;100756.50;5025537;28;20052;-72
2021/01/18 02:05:36;;;;;;;79.13;40.20;;;;;;;-15.09;55.44;100751.09;5023754;28;20053;-73
2021/01/18 02:08:04;;;;;;;72.68;37.10;;;;;;;-15.15;55.49;100749.19;5023615;28;20659;-70
2021/01/18 02:10:31;;;;;;;57.78;33.20;;;;;;;-15.28;55.22;100747.84;5024359;28;20453;-67
2021/01/18 02:13:00;;;;;;;42.17;30.20;;;;;;;-15.36;55.68;100754.25;5023721;28;20053;-71
2021/01/18 02:15:45;;;;;;;69.85;46.90;;;;;;;-15.38;55.78;100760.06;5024217;28;20041;-70
2021/01/18 02:18:47;;;;;;;85.85;57.17;;;;;;;-15.33;55.62;100767.06;5024268;28;20501;-69
2021/01/18 02:21:49;;;;;;;66.63;46.63;;;;;;;-15.28;55.40;100765.56;4942453;29;20055;-69
2021/01/18 02:24:47;;;;;;;39.22;35.05;;;;;;;-15.25;55.33;100765.72;4866885;29;20420;-70
2021/01/18 02:27:26;;;;;;;51.28;34.95;;;;;;;-15.25;55.45;100760.63;4866514;29;20059;-71
2021/01/18 02:30:13;;;;;;;40.67;28.85;;;;;;;-15.33;55.13;100761.13;4867750;29;20052;-72
2021/01/18 02:33:14;;;;;;;74.85;34.40;;;;;;;-15.43;55.29;100767.47;4852762;29;20410;-70
2021/01/18 02:36:07;;;;;;;100.93;49.53;;;;;;;-15.40;55.34;100765.06;4866701;29;20065;-72
2021/01/18 02:38:40;;;;;;;141.30;77.43;;;;;;;-15.38;55.39;100780.34;4867624;29;20096;-69
2021/01/18 02:41:21;;;;;;;78.40;44.58;;;;;;;-15.40;55.37;100775.22;4867747;29;20045;-71
2021/01/18 02:43:51;;;;;;;89.93;55.67;;;;;;;-15.38;55.17;100770.22;4866644;29;20053;-71
2021/01/18 02:46:20;;;;;;;131.18;63.95;;;;;;;-15.37;55.17;100767.75;4867974;29;20053;-71
2021/01/18 02:48:48;;;;;;;115.22;62.53;;;;;;;-15.36;55.27;100772.00;4867234;29;20617;-69
2021/01/18 02:51:20;;;;;;;141.02;67.35;;;;;;;-15.34;55.16;100779.66;4867816;29;20049;-71
2021/01/18 02:53:57;;;;;;;112.15;62.38;;;;;;;-15.35;55.21;100777.94;4853310;29;20049;-71
2021/01/18 02:56:26;;;;;;;98.65;51.28;;;;;;;-15.35;55.28;100772.88;4866980;29;20049;-72
2021/01/18 02:58:54;;;;;;;99.55;58.35;;;;;;;-15.36;55.14;100779.59;4921400;29;20051;-72
2021/01/18 03:01:37;;;;;;;104.97;58.33;;;;;;;-15.35;55.51;100773.72;4990965;28;20485;-72
2021/01/18 03:04:06;;;;;;;97.10;55.15;;;;;;;-15.34;55.17;100777.97;5027045;28;20050;-72
2021/01/18 03:06:40;;;;;;;155.27;67.03;;;;;;;-15.35;55.16;100760.22;5010391;28;20049;-72
2021/01/18 03:09:13;;;;;;;114.72;64.60;;;;;;;-15.36;55.25;100766.91;5027505;28;20041;-72
2021/01/18 03:11:43;;;;;;;132.75;72.15;;;;;;;-15.36;55.33;100766.91;5027410;28;20485;-70
2021/01/18 03:14:13;;;;;;;129.27;65.78;;;;;;;-15.36;55.17;100771.13;5028164;28;20061;-69
2021/01/18 03:16:42;;;;;;;100.50;55.83;;;;;;;-15.35;55.27;100768.66;5026899;28;20103;-71
2021/01/18 03:19:09;;;;;;;114.07;63.85;;;;;;;-15.34;55.10;100765.31;5027307;28;20486;-71
2021/01/18 03:21:37;;;;;;;84.95;50.60;;;;;;;-15.32;55.24;100771.34;5028071;28;20045;-71
2021/01/18 03:24:05;;;;;;;109.47;55.92;;;;;;;-15.32;55.27;100765.38;5024321;28;20041;-73
2021/01/18 03:26:31;;;;;;;92.38;58.15;;;;;;;-15.33;54.94;100758.59;5027658;28;20358;-71
2021/01/18 03:28:57;;;;;;;90.63;52.95;;;;;;;-15.32;54.92;100755.25;5027651;28;20127;-72
2021/01/18 03:31:24;;;;;;;121.75;61.08;;;;;;;-15.32;54.88;100753.59;5025928;28;20073;-70
2021/01/18 03:33:50;;;;;;;144.27;76.88;;;;;;;-15.33;55.33;100759.47;5026901;28;20053;-69
2021/01/18 03:36:17;;;;;;;46.00;34.22;;;;;;;-15.34;55.03;100767.84;5026922;28;20061;-69
2021/01/18 03:38:44;;;;;;;125.50;70.28;;;;;;;-15.35;55.00;100755.16;5025291;28;20053;-70
2021/01/18 03:41:12;;;;;;;88.35;58.22;;;;;;;-15.34;55.31;100757.72;5027098;28;20045;-70
2021/01/18 03:43:39;;;;;;;95.82;51.95;;;;;;;-15.33;55.30;100749.31;5027507;28;20041;-73
2021/01/18 03:46:06;;;;;;;142.73;72.30;;;;;;;-15.33;55.05;100744.25;5025305;28;20053;-73
2021/01/18 03:48:32;;;;;;;119.45;63.95;;;;;;;-15.26;55.10;100747.91;5027117;28;20055;-71
2021/01/18 03:50:59;;;;;;;110.25;59.05;;;;;;;-15.20;55.14;100749.00;5027207;28;20053;-71
2021/01/18 03:53:25;;;;;;;68.72;45.88;;;;;;;-15.14;55.03;100752.56;5025732;28;20108;-71
2021/01/18 03:55:53;;;;;;;89.50;56.58;;;;;;;-15.12;54.99;100744.25;5024905;28;20046;-71
2021/01/18 03:58:19;;;;;;;146.13;77.93;;;;;;;-15.10;55.20;100735.03;5027098;28;20046;-70
2021/01/18 04:00:46;;;;;;;149.18;81.70;;;;;;;-15.08;55.37;100745.22;5025201;28;20054;-71
2021/01/18 04:03:12;;;;;;;121.15;74.75;;;;;;;-15.01;55.02;100749.72;5026759;28;20049;-70
2021/01/18 04:05:38;;;;;;;125.45;69.90;;;;;;;-14.93;55.05;100743.28;5026761;28;20045;-71
2021/01/18 04:08:05;;;;;;;106.15;72.15;;;;;;;-14.77;54.90;100738.78;5025244;28;20057;-70
2021/01/18 04:10:32;;;;;;;160.02;86.47;;;;;;;-14.66;54.67;100740.06;5025708;28;20422;-73
2021/01/18 04:12:59;;;;;;;133.25;77.20;;;;;;;-14.55;54.68;100725.19;5025426;28;20046;-71
2021/01/18 04:15:27;;;;;;;45.15;36.28;;;;;;;-14.41;54.65;100725.72;5026026;28;20042;-71
2021/01/18 04:17:55;;;;;;;133.95;74.70;;;;;;;-14.30;54.56;100737.09;5027297;28;20104;-68
2021/01/18 04:20:22;;;;;;;137.90;79.18;;;;;;;-14.23;54.53;100728.88;5027562;28;20055;-71
2021/01/18 04:22:50;;;;;;;87.38;46.85;;;;;;;-14.13;54.52;100732.59;5026508;28;20053;-71
2021/01/18 04:25:19;;;;;;;147.95;71.38;;;;;;;-14.06;54.66;100720.19;5025280;28;20080;-70
2021/01/18 04:27:47;;;;;;;101.95;53.95;;;;;;;-13.91;54.32;100719.00;5027198;28;20562;-70
2021/01/18 04:30:15;;;;;;;151.55;64.47;;;;;;;-13.81;54.35;100715.94;5025701;28;20053;-70
2021/01/18 04:32:42;;;;;;;267.55;127.15;;;;;;;-13.71;54.49;100717.13;5026783;28;20111;-70
2021/01/18 04:35:09;;;;;;;224.90;113.55;;;;;;;-13.63;54.30;100718.22;5026021;28;20097;-72
2021/01/18 04:37:36;;;;;;;168.45;95.43;;;;;;;-13.51;54.61;100718.63;5025596;28;20049;-71
2021/01/18 04:40:05;;;;;;;122.60;59.28;;;;;;;-13.39;54.17;100710.53;5026237;28;20049;-72
2021/01/18 04:42:31;;;;;;;102.63;52.75;;;;;;;-13.30;54.21;100715.88;5026556;28;20049;-71
2021/01/18 04:44:58;;;;;;;110.63;55.67;;;;;;;-13.21;54.37;100702.59;5025992;28;20045;-71
2021/01/18 04:47:27;;;;;;;113.30;71.63;;;;;;;-13.16;54.47;100713.78;5025929;28;20045;-72
2021/01/18 04:49:56;;;;;;;180.13;76.82;;;;;;;-13.14;54.34;100716.38;5025782;28;20092;-70
2021/01/18 04:52:38;;;;;;;216.93;87.35;;;;;;;-13.16;54.99;100710.34;5025205;28;20096;-71
2021/01/18 04:55:16;;;;;;;199.40;82.32;;;;;;;-13.15;55.32;100709.56;5027570;28;20049;-73
2021/01/18 04:57:52;;;;;;;179.35;74.18;;;;;;;-13.16;55.80;100708.69;5030002;28;20067;-72
2021/01/18 05:00:30;;;;;;;181.43;67.43;;;;;;;-13.15;55.89;100712.09;5028891;28;20046;-72
2021/01/18 05:03:05;;;;;;;189.18;72.10;;;;;;;-13.12;56.63;100717.28;5026835;28;20053;-70
2021/01/18 05:05:46;;;;;;;200.90;69.03;;;;;;;-13.09;56.79;100707.19;5027152;28;20378;-73
2021/01/18 05:08:33;;;;;;;156.75;64.80;;;;;;;-13.06;57.32;100704.75;5026076;28;20051;-70
2021/01/18 05:11:01;;;;;;;169.63;63.53;;;;;;;-13.03;57.19;100707.38;5024769;28;20272;-71
2021/01/18 05:13:30;;;;;;;117.72;48.35;;;;;;;-12.93;57.64;100694.09;5024871;28;20493;-73
2021/01/18 05:15:59;;;;;;;146.32;57.38;;;;;;;-12.81;56.82;100691.06;5024669;28;20049;-69
2021/01/18 05:18:33;;;;;;;129.60;55.05;;;;;;;-12.71;56.75;100698.16;5025032;28;20099;-71
2021/01/18 05:21:02;;;;;;;138.48;51.40;;;;;;;-12.56;56.54;100702.81;5024638;28;20098;-71
2021/01/18 05:23:28;;;;;;;58.70;34.28;;;;;;;-12.40;56.71;100698.19;5023172;28;20049;-73
2021/01/18 05:26:16;;;;;;;64.57;29.13;;;;;;;-12.22;56.29;100701.22;5022015;28;20102;-71
2021/01/18 05:28:46;;;;;;;66.97;29.13;;;;;;;-12.04;56.07;100707.63;5025733;28;20061;-71
2021/01/18 05:31:32;;;;;;;91.93;50.13;;;;;;;-11.95;56.13;100711.28;5024669;28;20053;-69
2021/01/18 05:34:01;;;;;;;158.63;74.25;;;;;;;-11.90;55.98;100706.31;5024288;28;20046;-72
2021/01/18 05:36:37;;;;;;;171.95;81.68;;;;;;;-11.84;56.30;100706.41;5024197;28;20186;-71
2021/01/18 05:39:12;;;;;;;160.55;74.57;;;;;;;-11.77;56.11;100710.00;5022588;28;20072;-76
2021/01/18 05:41:39;;;;;;;150.70;71.38;;;;;;;-11.69;55.38;100717.81;5024751;28;20057;-74
2021/01/18 05:44:07;;;;;;;146.68;76.50;;;;;;;-11.83;55.91;100720.91;5025679;28;20041;-76
2021/01/18 05:46:34;;;;;;;117.30;67.90;;;;;;;-11.95;56.75;100720.59;5024357;28;20053;-71
2021/01/18 05:49:10;;;;;;;95.65;55.83;;;;;;;-11.93;56.60;100729.16;5024195;28;20609;-70
2021/01/18 05:51:37;;;;;;;142.98;59.47;;;;;;;-11.95;56.79;100724.00;5024601;28;20048;-71
2021/01/18 05:54:05;;;;;;;142.95;70.05;;;;;;;-11.96;56.94;100719.72;5021750;28;20080;-71
2021/01/18 05:56:40;;;;;;;126.00;63.90;;;;;;;-11.96;56.98;100718.88;5025132;28;20065;-77
2021/01/18 05:59:17;;;;;;;87.63;45.97;;;;;;;-11.89;56.57;100730.06;5025232;28;20053;-72
2021/01/18 06:01:44;;;;;;;99.03;56.05;;;;;;;-11.84;57.20;100726.78;4963794;28;20844;-71
2021/01/18 06:04:13;;;;;;;107.28;46.45;;;;;;;-11.78;56.75;100729.50;5006268;28;20050;-73
2021/01/18 06:06:41;;;;;;;112.00;57.08;;;;;;;-11.71;56.84;100716.94;5006321;28;20769;-74
2021/01/18 06:09:08;;;;;;;106.15;53.72;;;;;;;-11.63;56.40;100716.31;5004675;28;20042;-70
2021/01/18 06:11:35;;;;;;;116.07;59.08;;;;;;;-11.56;56.76;100713.06;5004309;28;20100;-74
2021/01/18 06:14:04;;;;;;;95.30;51.88;;;;;;;-11.47;56.48;100709.00;5004686;28;20144;-75
2021/01/18 06:16:32;;;;;;;123.40;52.70;;;;;;;-11.43;56.49;100716.78;5003762;28;20056;-74
2021/01/18 06:19:07;;;;;;;119.50;59.88;;;;;;;-11.39;56.55;100717.72;5005480;28;20657;-75
2021/01/18 06:21:42;;;;;;;136.38;63.88;;;;;;;-11.38;56.29;100720.31;5005566;28;20057;-73
2021/01/18 06:24:18;;;;;;;;;;;;;;;-11.19;56.18;100720.75;5003157;28;20050;-73
2021/01/18 06:26:45;;;;;;;70.65;45.15;;;;;;;-11.06;55.28;100712.53;5004678;28;19922;-74
2021/01/18 06:29:32;;;;;;;165.32;67.30;;;;;;;-11.25;56.05;100715.47;5004989;28;20526;-73
2021/01/18 06:32:00;;;;;;;131.52;67.65;;;;;;;-11.21;56.18;100707.94;5005613;28;20139;-76
2021/01/18 06:34:27;;;;;;;107.05;62.22;;;;;;;-11.16;56.38;100708.06;5005875;28;20052;-76
2021/01/18 06:36:55;;;;;;;113.80;55.55;;;;;;;-11.13;56.72;100703.00;5010963;28;20069;-75
2021/01/18 06:39:25;;;;;;;123.20;52.88;;;;;;;-11.12;56.62;100712.41;5023517;28;20123;-74
2021/01/18 06:42:01;;;;;;;54.05;31.90;;;;;;;-11.05;56.84;100700.66;5031466;28;20563;-74
2021/01/18 06:44:36;;;;;;;64.40;24.67;;;;;;;-11.10;56.51;100715.00;5030085;28;20045;-77
2021/01/18 06:47:22;;;;;;;;;;;;;;;-11.01;56.86;100710.94;5012572;28;20042;-75
2021/01/18 06:49:52;;;;;;;76.32;35.97;;;;;;;-11.12;57.18;100709.00;5026108;28;20281;-73
2021/01/18 06:52:28;;;;;;;75.30;43.30;;;;;;;-11.13;57.12;100713.22;5008180;28;20066;-77
2021/01/18 06:55:10;;;;;;;94.93;45.33;;;;;;;-11.05;57.20;100711.72;5029004;28;20049;-74
2021/01/18 06:57:58;;;;;;;86.13;44.83;;;;;;;-11.01;56.79;100721.16;5029207;28;20111;-76
2021/01/18 07:00:25;;;;;;;91.00;44.85;;;;;;;-11.03;56.86;100720.25;5045605;28;20045;-77
2021/01/18 07:03:00;;;;;;;98.55;52.85;;;;;;;-11.05;56.89;100729.56;5045425;28;20045;-75
2021/01/18 07:05:45;;;;;;;56.08;28.83;;;;;;;-11.09;57.39;100721.81;5047266;28;20079;-74
2021/01/18 07:08:14;;;;;;;45.20;20.05;;;;;;;-11.07;57.31;100720.13;5050530;28;20048;-73
2021/01/18 07:10:43;;;;;;;89.63;49.65;;;;;;;-11.05;57.39;100723.63;5051154;28;20101;-72
2021/01/18 07:13:10;;;;;;;78.13;37.42;;;;;;;-11.06;57.31;100720.19;5029747;28;20241;-72
2021/01/18 07:15:40;;;;;;;117.13;54.22;;;;;;;-11.02;57.16;100724.53;5043901;28;20029;-74
2021/01/18 07:18:09;;;;;;;109.43;47.83;;;;;;;-11.00;56.94;100722.00;5048700;28;20030;-74
2021/01/18 07:20:41;;;;;;;86.00;48.63;;;;;;;-10.97;57.50;100727.19;5049129;28;20049;-76
2021/01/18 07:23:28;;;;;;;94.35;46.20;;;;;;;-10.98;57.14;100730.59;5049100;28;20371;-76
2021/01/18 07:26:40;;;;;;;85.60;46.53;;;;;;;-10.97;57.16;100728.03;5050154;28;20033;-74
2021/01/18 07:29:08;;;;;;;104.35;53.08;;;;;;;-10.97;57.28;100728.03;5051581;28;20029;-73
2021/01/18 07:31:43;;;;;;;101.03;52.28;;;;;;;-10.87;57.10;100725.72;5044124;28;20077;-72
2021/01/18 07:34:14;;;;;;;147.38;67.10;;;;;;;-10.84;57.22;100734.31;5034863;28;20029;-75
2021/01/18 07:36:43;;;;;;;84.47;47.60;;;;;;;-10.84;56.74;100730.88;5037515;28;20045;-76
2021/01/18 07:39:28;;;;;;;51.72;30.20;;;;;;;-10.77;57.17;100733.63;5038339;28;20045;-73
2021/01/18 07:41:54;;;;;;;79.78;38.85;;;;;;;-10.74;56.75;100732.81;5030199;28;20050;-73
2021/01/18 07:44:33;;;;;;;91.78;47.45;;;;;;;-10.69;56.45;100738.88;5031105;28;20033;-73
2021/01/18 07:47:00;;;;;;;91.57;46.90;;;;;;;-10.68;56.81;100748.25;5034164;28;20045;-75
2021/01/18 07:49:48;;;;;;;102.90;52.33;;;;;;;-10.68;56.88;100753.34;5025922;28;20541;-73
2021/01/18 07:52:19;;;;;;;70.25;30.98;;;;;;;-10.71;56.52;100754.97;5005489;28;20050;-72
2021/01/18 07:54:48;;;;;;;82.97;36.72;;;;;;;-10.74;56.52;100760.88;5022933;28;20048;-73
2021/01/18 07:57:28;;;;;;;96.50;47.13;;;;;;;-10.70;56.68;100760.09;5023518;28;20063;-75
2021/01/18 08:00:29;;;;;;;33.85;22.65;;;;;;;-10.64;56.75;100767.03;5020695;28;20049;-73
2021/01/18 08:03:12;;;;;;;94.93;46.67;;;;;;;-10.75;56.37;100758.28;5017949;28;20049;-76
2021/01/18 08:05:41;;;;;;;86.97;39.05;;;;;;;-10.59;56.00;100765.44;5019069;28;20049;-72
2021/01/18 08:08:09;;;;;;;82.82;36.47;;;;;;;-10.54;55.91;100763.00;5019928;28;20493;-73
2021/01/18 08:10:51;;;;;;;99.40;46.00;;;;;;;-10.44;55.81;100760.69;5018766;28;20385;-70
2021/01/18 08:14:04;;;;;;;36.25;20.27;;;;;;;-10.29;55.68;100765.22;5020042;28;20056;-75
2021/01/18 08:16:42;;;;;;;69.38;30.60;;;;;;;-10.28;55.76;100772.06;5020760;28;20042;-74
2021/01/18 08:19:19;;;;;;;52.03;20.90;;;;;;;-10.27;55.74;100776.31;5021187;28;20564;-73
2021/01/18 08:21:59;;;;;;;75.43;37.08;;;;;;;-10.26;55.51;100772.94;5021494;28;20103;-72
2021/01/18 08:25:02;;;;;;;94.22;39.17;;;;;;;-10.24;55.81;100768.72;5018935;28;20073;-76
2021/01/18 08:27:53;;;;;;;113.50;48.95;;;;;;;-10.29;56.19;100767.75;5020967;28;20649;-74
2021/01/18 08:30:32;;;;;;;77.88;37.80;;;;;;;-10.29;55.88;100764.34;5020306;28;20581;-75
2021/01/18 08:33:01;;;;;;;89.80;40.88;;;;;;;-10.37;56.34;100766.75;5020007;28;20088;-76
2021/01/18 08:35:31;;;;;;;67.60;31.15;;;;;;;-10.53;56.18;100767.25;5018943;28;20420;-73
2021/01/18 08:38:01;;;;;;;98.82;46.60;;;;;;;-10.54;55.85;100765.56;5015023;28;20045;-76
2021/01/18 08:40:39;;;;;;;94.22;41.33;;;;;;;-10.57;55.86;100766.34;5017006;28;20049;-75
2021/01/18 08:43:06;;;;;;;65.40;38.30;;;;;;;-10.40;55.89;100757.34;5017500;28;20049;-74
2021/01/18 08:45:37;;;;;;;81.28;30.60;;;;;;;-10.25;55.23;100754.22;5016246;28;20057;-73
2021/01/18 08:48:06;;;;;;;37.78;22.02;;;;;;;-10.19;55.70;100756.91;5017981;28;20225;-74
2021/01/18 08:50:41;;;;;;;71.65;32.88;;;;;;;-10.09;55.22;100757.09;5017563;28;20098;-72
2021/01/18 08:53:27;;;;;;;63.95;32.38;;;;;;;-9.89;55.70;100753.19;5017019;28;20242;-73
2021/01/18 08:55:55;;;;;;;73.30;32.22;;;;;;;-9.69;54.66;100750.16;5021604;28;20089;-75
2021/01/18 08:58:36;;;;;;;77.35;36.47;;;;;;;-9.77;55.02;100752.59;5021120;28;20049;-72
2021/01/18 09:01:04;;;;;;;98.13;36.03;;;;;;;-9.73;55.13;100756.06;5022020;28;20882;-74
2021/01/18 09:03:30;;;;;;;79.72;33.70;;;;;;;-9.66;55.14;100747.66;5023886;28;20045;-80
2021/01/18 09:05:58;;;;;;;68.57;37.05;;;;;;;-9.66;55.03;100753.63;5019473;28;20037;-74
2021/01/18 09:08:27;;;;;;;87.28;37.08;;;;;;;-9.63;55.39;100757.94;5023295;28;20057;-75
2021/01/18 09:10:56;;;;;;;85.97;36.65;;;;;;;-9.47;54.81;100748.81;5019048;28;20049;-74
2021/01/18 09:13:23;;;;;;;87.97;38.78;;;;;;;-9.25;54.55;100750.91;5018525;28;20053;-75
2021/01/18 09:15:51;;;;;;;102.20;45.33;;;;;;;-9.08;54.61;100740.94;5028902;28;20046;-74
2021/01/18 09:18:19;;;;;;;92.82;41.92;;;;;;;-8.94;54.78;100740.31;5028009;28;20448;-74
2021/01/18 09:20:46;;;;;;;116.38;50.75;;;;;;;-8.77;54.21;100738.81;5030548;28;20042;-72
2021/01/18 09:23:14;;;;;;;107.90;40.10;;;;;;;-8.75;54.34;100733.72;5027728;28;20057;-73
2021/01/18 09:25:42;;;;;;;101.32;49.45;;;;;;;-8.80;54.23;100732.81;5024748;28;20053;-74
2021/01/18 09:28:09;;;;;;;103.40;40.00;;;;;;;-8.73;54.68;100729.50;5024543;28;20105;-73
2021/01/18 09:30:38;;;;;;;109.68;50.88;;;;;;;-8.63;54.51;100735.63;5025792;28;20059;-75
2021/01/18 09:33:07;;;;;;;107.30;46.10;;;;;;;-8.52;54.24;100723.81;5024848;28;20553;-73
2021/01/18 09:35:36;;;;;;;114.15;50.50;;;;;;;-8.48;54.63;100723.88;5025248;28;20045;-75
2021/01/18 09:38:03;;;;;;;100.95;46.22;;;;;;;-8.49;54.38;100719.56;5022409;28;20142;-75
2021/01/18 09:40:30;;;;;;;84.40;39.88;;;;;;;-8.42;54.20;100722.22;5021959;28;20515;-74
2021/01/18 09:42:58;;;;;;;81.35;39.40;;;;;;;-8.39;54.22;100715.41;5020769;28;20056;-73
2021/01/18 09:45:26;;;;;;;118.57;50.17;;;;;;;-8.35;54.56;100724.84;5026117;28;20050;-74
2021/01/18 09:47:54;;;;;;;82.13;35.83;;;;;;;-8.31;54.45;100721.47;5026667;28;20042;-74
2021/01/18 09:50:22;;;;;;;93.20;37.30;;;;;;;-8.18;54.16;100724.19;5029326;28;20137;-77
2021/01/18 09:52:49;;;;;;;83.13;41.40;;;;;;;-8.09;53.91;100719.16;5028258;28;20106;-75
2021/01/18 09:55:19;;;;;;;98.65;45.05;;;;;;;-8.08;53.82;100711.50;5027929;28;20096;-76
2021/01/18 09:57:54;;;;;;;92.57;42.67;;;;;;;-8.17;54.10;100721.66;5031610;28;20053;-76
2021/01/18 10:00:27;;;;;;;112.22;45.53;;;;;;;-8.25;54.38;100718.13;5030918;28;20075;-76
2021/01/18 10:02:55;;;;;;;89.75;36.50;;;;;;;-8.26;53.97;100722.38;5026982;28;20090;-75
2021/01/18 10:05:25;;;;;;;59.55;33.42;;;;;;;-8.38;54.42;100721.38;5021007;28;20060;-73
2021/01/18 10:07:55;;;;;;;79.07;36.05;;;;;;;-8.43;54.48;100717.94;5021075;28;20049;-73
2021/01/18 10:10:21;;;;;;;87.43;32.05;;;;;;;-8.39;54.39;100712.84;5024013;28;20046;-72
2021/01/18 10:12:55;;;;;;;85.57;32.45;;;;;;;-8.32;54.48;100719.78;5024114;28;20052;-72
2021/01/18 10:15:27;;;;;;;82.13;33.40;;;;;;;-8.23;54.16;100726.69;5023584;28;20108;-73
2021/01/18 10:17:55;;;;;;;77.90;34.53;;;;;;;-8.15;54.57;100721.66;5021221;28;20053;-72
2021/01/18 10:20:30;;;;;;;64.97;29.73;;;;;;;-8.05;54.44;100720.91;5024239;28;20053;-72
2021/01/18 10:22:57;;;;;;;78.20;31.52;;;;;;;-8.03;54.32;100724.38;5023746;28;20050;-76
2021/01/18 10:25:28;;;;;;;75.65;31.00;;;;;;;-7.90;53.96;100730.50;5019820;28;20111;-74
2021/01/18 10:27:57;;;;;;;58.33;33.40;;;;;;;-7.83;53.73;100726.25;5023845;28;20042;-73
2021/01/18 10:30:32;;;;;;;108.05;49.00;;;;;;;-7.83;53.65;100723.69;5026003;28;20112;-74
2021/01/18 10:33:01;;;;;;;97.13;39.20;;;;;;;-7.79;53.85;100731.44;5006084;28;20049;-79
2021/01/18 10:35:30;;;;;;;97.55;38.17;;;;;;;-7.83;53.71;100724.56;5021506;28;20049;-74
2021/01/18 10:38:29;;;;;;;91.70;39.42;;;;;;;-7.76;53.89;100728.03;5020002;28;20716;-74
2021/01/18 10:41:04;;;;;;;95.80;41.05;;;;;;;-7.68;53.98;100731.56;4958959;28;20729;-74
2021/01/18 10:43:30;;;;;;;;;;;;;;;-7.41;53.64;100735.22;4961602;28;20114;-74
2021/01/18 10:45:59;;;;;;;98.30;40.63;;;;;;;-7.57;53.03;100735.06;4964239;28;20498;-79
2021/01/18 10:48:30;;;;;;;102.32;46.95;;;;;;;-7.66;53.58;100732.41;4967925;28;20062;-76
2021/01/18 10:50:58;;;;;;;109.85;45.88;;;;;;;-7.60;53.37;100732.47;4966907;28;20069;-73
2021/01/18 10:53:29;;;;;;;136.45;57.47;;;;;;;-7.53;53.17;100728.25;4965270;28;20058;-74
2021/01/18 10:56:12;;;;;;;117.03;48.08;;;;;;;-7.31;53.39;100726.72;4966148;28;20506;-74
2021/01/18 10:58:39;;;;;;;104.18;46.80;;;;;;;-7.18;52.46;100728.56;4964136;28;20053;-74
2021/01/18 11:01:11;;;;;;;96.40;39.40;;;;;;;-7.16;52.61;100726.00;4965671;28;20065;-73
2021/01/18 11:03:40;;;;;;;103.68;44.58;;;;;;;-7.13;52.64;100721.75;4958277;28;20698;-76
2021/01/18 11:06:11;;;;;;;121.50;44.88;;;;;;;-6.93;52.84;100715.91;4959599;28;20046;-77
2021/01/18 11:08:38;;;;;;;119.45;45.15;;;;;;;-6.75;52.14;100705.75;4961823;28;20764;-75
2021/01/18 11:11:17;;;;;;;95.78;38.38;;;;;;;-6.53;52.20;100703.28;4959858;28;20057;-76
2021/01/18 11:13:44;;;;;;;80.25;37.60;;;;;;;-6.37;51.76;100707.63;4961508;28;20055;-78
2021/01/18 11:16:14;;;;;;;74.78;36.80;;;;;;;-6.24;51.66;100698.25;5021147;28;20413;-73
2021/01/18 11:18:40;;;;;;;78.72;37.55;;;;;;;-6.19;51.79;100699.13;5021151;28;20042;-74